createdAt,value
2023-02-19T00:01:45.740Z,3.40
2023-02-19T00:04:15.604Z,3.40
2023-02-19T00:06:43.056Z,3.30
2023-02-19T00:09:12.083Z,3.30
2023-02-19T00:11:39.428Z,3.40
2023-02-19T00:14:06.665Z,3.40
2023-02-19T00:16:37.092Z,3.40
2023-02-19T00:19:06.550Z,3.40
2023-02-19T00:21:34.182Z,3.40
2023-02-19T00:24:03.718Z,3.50
2023-02-19T00:26:30.981Z,3.40
2023-02-19T00:28:58.625Z,3.30
2023-02-19T00:31:32.792Z,3.20
2023-02-19T00:34:03.863Z,3.10
2023-02-19T00:36:32.127Z,3.10
2023-02-19T00:38:59.349Z,3.00
2023-02-19T00:41:26.266Z,2.90
2023-02-19T00:43:58.663Z,2.80
2023-02-19T00:46:28.515Z,2.80
2023-02-19T00:48:56.384Z,2.80
2023-02-19T00:51:29.867Z,2.80
2023-02-19T00:53:57.294Z,2.80
2023-02-19T00:56:24.513Z,2.80
2023-02-19T00:58:51.778Z,2.80
2023-02-19T01:01:19.460Z,2.80
2023-02-19T01:03:47.002Z,2.80
2023-02-19T01:06:16.468Z,2.70
2023-02-19T01:08:43.297Z,2.70
2023-02-19T01:11:11.425Z,2.70
2023-02-19T01:13:39.271Z,2.70
2023-02-19T01:16:15.239Z,2.70
2023-02-19T01:18:42.580Z,2.70
2023-02-19T01:21:30.647Z,2.70
2023-02-19T01:23:58.690Z,2.60
2023-02-19T01:26:28.823Z,2.50
2023-02-19T01:28:55.843Z,2.40
2023-02-19T01:31:24.581Z,2.40
2023-02-19T01:33:54.790Z,2.40
2023-02-19T01:36:23.003Z,2.40
2023-02-19T01:38:50.060Z,2.40
2023-02-19T01:41:22.545Z,2.40
2023-02-19T01:44:01.875Z,2.40
2023-02-19T01:46:36.483Z,2.30
2023-02-19T01:49:26.408Z,2.30
2023-02-19T01:52:00.777Z,2.30
2023-02-19T01:54:31.084Z,2.30
2023-02-19T01:56:59.593Z,2.20
2023-02-19T01:59:26.653Z,2.20
